createdAt,value
2019-03-28T00:00:08.065Z,0.00
2019-03-28T00:02:00.300Z,0.00
2019-03-28T00:03:00.318Z,0.00
2019-03-28T00:04:53.220Z,0.00
2019-03-28T00:05:53.228Z,0.00
2019-03-28T00:07:46.133Z,0.00
2019-03-28T00:08:46.228Z,0.00
2019-03-28T00:10:39.051Z,0.00
2019-03-28T00:11:39.057Z,0.00
2019-03-28T00:13:31.967Z,0.00
2019-03-28T00:14:31.973Z,0.00
2019-03-28T00:16:24.876Z,0.00
2019-03-28T00:17:24.887Z,0.00
2019-03-28T00:19:17.896Z,0.00
2019-03-28T00:20:17.801Z,0.00
2019-03-28T00:22:10.705Z,0.00
2019-03-28T00:23:10.715Z,0.00
2019-03-28T00:25:03.626Z,0.00
2019-03-28T00:26:03.633Z,0.00
2019-03-28T00:27:56.534Z,0.00
2019-03-28T00:28:56.547Z,0.00
2019-03-28T00:30:49.456Z,0.00
2019-03-28T00:31:49.468Z,0.00
2019-03-28T00:33:42.373Z,0.00
2019-03-28T00:34:42.377Z,0.00
2019-03-28T00:36:35.283Z,0.00
2019-03-28T00:37:35.408Z,0.00
2019-03-28T00:39:28.211Z,0.00
2019-03-28T00:40:28.209Z,0.00
2019-03-28T00:42:21.108Z,0.00
2019-03-28T00:43:21.119Z,0.00
2019-03-28T00:45:14.029Z,0.00
2019-03-28T00:46:14.034Z,0.00
2019-03-28T00:48:07.079Z,0.00
2019-03-28T00:49:07.093Z,0.00
2019-03-28T00:51:00.233Z,0.00
2019-03-28T00:52:00.008Z,0.00
2019-03-28T00:53:53.412Z,0.00
2019-03-28T00:54:53.417Z,0.00
2019-03-28T00:56:47.601Z,0.00
2019-03-28T00:57:46.332Z,0.00
2019-03-28T00:59:39.242Z,0.00
2019-03-28T01:00:39.246Z,0.00
2019-03-28T01:02:32.144Z,0.00
2019-03-28T01:03:32.158Z,0.00
2019-03-28T01:05:25.067Z,0.00
2019-03-28T01:06:25.071Z,0.00
2019-03-28T01:08:17.973Z,0.00
2019-03-28T01:09:17.992Z,0.00
2019-03-28T01:11:10.894Z,0.00
2019-03-28T01:12:10.901Z,0.00
2019-03-28T01:14:03.810Z,0.00
2019-03-28T01:15:03.816Z,0.00
2019-03-28T01:16:56.718Z,0.00
2019-03-28T01:17:56.729Z,0.00
2019-03-28T01:19:49.639Z,0.00
2019-03-28T01:20:49.643Z,0.00
2019-03-28T01:22:43.043Z,0.00
2019-03-28T01:23:43.054Z,0.00
2019-03-28T01:25:35.961Z,0.00
2019-03-28T01:26:35.968Z,0.00
2019-03-28T01:28:28.873Z,0.00
2019-03-28T01:29:28.885Z,0.00
2019-03-28T01:31:21.791Z,0.00
2019-03-28T01:32:21.805Z,0.00
2019-03-28T01:34:14.706Z,0.00
2019-03-28T01:35:14.713Z,0.00
2019-03-28T01:37:07.615Z,0.00
2019-03-28T01:38:07.627Z,0.00
2019-03-28T01:40:00.842Z,0.00
2019-03-28T01:41:00.540Z,0.00
2019-03-28T01:42:53.440Z,0.00
2019-03-28T01:43:53.455Z,0.00
2019-03-28T01:45:46.365Z,0.00
2019-03-28T01:46:46.368Z,0.00
2019-03-28T01:48:39.275Z,0.00
2019-03-28T01:49:39.284Z,0.00
2019-03-28T01:51:32.185Z,0.00
2019-03-28T01:52:32.197Z,0.00
2019-03-28T01:54:25.119Z,0.00
2019-03-28T01:55:25.111Z,0.00
2019-03-28T01:57:18.015Z,0.00
2019-03-28T01:58:18.027Z,0.00
2019-03-28T02:00:10.933Z,0.00
2019-03-28T02:01:10.937Z,0.00
2019-03-28T02:03:03.837Z,0.00
2019-03-28T02:04:03.854Z,0.00
2019-03-28T02:05:57.257Z,0.00
2019-03-28T02:06:57.260Z,0.00
2019-03-28T02:08:50.191Z,0.00
2019-03-28T02:09:50.178Z,0.00
2019-03-28T02:11:43.075Z,0.00
2019-03-28T02:12:43.091Z,0.00
2019-03-28T02:14:35.994Z,0.00
2019-03-28T02:15:35.999Z,0.00
2019-03-28T02:17:28.903Z,0.00
2019-03-28T02:18:29.272Z,0.00
2019-03-28T02:20:21.826Z,0.00
2019-03-28T02:21:21.830Z,0.00
2019-03-28T02:23:14.731Z,0.00
2019-03-28T02:24:14.744Z,0.00
2019-03-28T02:26:07.651Z,0.00
2019-03-28T02:27:07.662Z,0.00
2019-03-28T02:29:00.564Z,0.00
2019-03-28T02:30:00.571Z,0.00
2019-03-28T02:31:53.481Z,0.00
2019-03-28T02:32:53.486Z,0.00
2019-03-28T02:34:48.953Z,0.00
2019-03-28T02:35:46.401Z,0.00
2019-03-28T02:37:39.301Z,0.00
2019-03-28T02:38:39.315Z,0.00
2019-03-28T02:40:32.226Z,0.00
2019-03-28T02:41:32.226Z,0.00
2019-03-28T02:43:25.129Z,0.00
2019-03-28T02:44:25.146Z,0.00
2019-03-28T02:46:18.054Z,0.00
2019-03-28T02:47:18.054Z,0.00
2019-03-28T02:49:10.963Z,0.00
2019-03-28T02:50:11.492Z,0.00
2019-03-28T02:52:03.871Z,0.00
2019-03-28T02:53:03.886Z,0.00
2019-03-28T02:54:57.931Z,0.00
2019-03-28T02:55:56.797Z,0.00
2019-03-28T02:57:49.700Z,0.00
2019-03-28T02:58:49.710Z,0.00
2019-03-28T03:00:42.620Z,0.00
2019-03-28T03:01:42.622Z,0.00
2019-03-28T03:03:35.526Z,0.00
2019-03-28T03:04:35.539Z,0.00
2019-03-28T03:06:28.451Z,0.00
2019-03-28T03:07:28.453Z,0.00
2019-03-28T03:09:21.360Z,0.00
2019-03-28T03:10:21.366Z,0.00
2019-03-28T03:12:14.267Z,0.00
2019-03-28T03:13:14.277Z,0.00
2019-03-28T03:15:07.186Z,0.00
2019-03-28T03:16:07.191Z,0.00
2019-03-28T03:18:00.093Z,0.00
2019-03-28T03:19:00.105Z,0.00
2019-03-28T03:20:53.014Z,0.00
2019-03-28T03:21:53.019Z,0.00
2019-03-28T03:23:46.601Z,0.00
2019-03-28T03:24:45.940Z,0.00
2019-03-28T03:26:38.912Z,0.00
2019-03-28T03:27:38.852Z,0.00
2019-03-28T03:29:31.769Z,0.00
2019-03-28T03:30:32.308Z,0.00
2019-03-28T03:32:24.666Z,0.00
2019-03-28T03:33:24.692Z,0.00
2019-03-28T03:35:17.582Z,0.00
2019-03-28T03:36:17.588Z,0.00
2019-03-28T03:38:10.488Z,0.00
2019-03-28T03:39:10.501Z,0.00
2019-03-28T03:41:03.409Z,0.00
2019-03-28T03:42:03.414Z,0.00
2019-03-28T03:43:56.322Z,0.00
2019-03-28T03:44:56.328Z,0.00
2019-03-28T03:46:49.229Z,0.00
2019-03-28T03:47:49.242Z,0.00
2019-03-28T03:49:42.147Z,0.00
2019-03-28T03:50:42.152Z,0.00
2019-03-28T03:52:35.095Z,0.00
2019-03-28T03:53:35.077Z,0.00
2019-03-28T03:55:27.978Z,0.00
2019-03-28T03:56:27.983Z,0.00
2019-03-28T03:58:20.884Z,0.00
2019-03-28T03:59:20.896Z,0.00
2019-03-28T04:01:13.801Z,0.00
2019-03-28T04:02:13.811Z,0.00
2019-03-28T04:04:06.721Z,0.00
2019-03-28T04:05:06.743Z,0.00
2019-03-28T04:06:59.622Z,0.00
2019-03-28T04:08:00.092Z,0.00
2019-03-28T04:09:52.548Z,0.00
2019-03-28T04:10:52.547Z,0.00
2019-03-28T04:12:45.454Z,0.00
2019-03-28T04:13:45.465Z,0.00
2019-03-28T04:15:38.373Z,0.00
2019-03-28T04:16:38.378Z,0.00
2019-03-28T04:18:31.279Z,0.00
2019-03-28T04:19:31.943Z,0.00
2019-03-28T04:21:24.212Z,0.00
2019-03-28T04:22:24.204Z,0.00
2019-03-28T04:24:17.115Z,0.00
2019-03-28T04:25:17.123Z,0.00
2019-03-28T04:27:10.023Z,0.00
2019-03-28T04:28:10.032Z,0.00
2019-03-28T04:30:03.091Z,0.00
2019-03-28T04:31:03.095Z,0.00
2019-03-28T04:32:55.995Z,0.00
2019-03-28T04:33:56.008Z,0.00
2019-03-28T04:35:49.002Z,0.00
2019-03-28T04:36:48.921Z,0.00
2019-03-28T04:38:41.823Z,0.00
2019-03-28T04:39:42.427Z,0.00
2019-03-28T04:41:34.743Z,0.00
2019-03-28T04:42:34.754Z,0.00
2019-03-28T04:44:27.659Z,0.00
2019-03-28T04:45:27.664Z,0.00
2019-03-28T04:47:20.562Z,0.00
2019-03-28T04:48:20.574Z,0.00
2019-03-28T04:50:13.484Z,4.00
2019-03-28T04:51:13.491Z,0.00
2019-03-28T04:53:06.393Z,4.00
2019-03-28T04:54:09.588Z,4.00
2019-03-28T04:55:59.307Z,8.00
2019-03-28T04:56:59.316Z,8.00
2019-03-28T04:58:52.216Z,12.00
2019-03-28T04:59:52.228Z,12.00
2019-03-28T05:01:58.748Z,20.00
2019-03-28T05:02:46.139Z,24.00
2019-03-28T05:04:38.062Z,32.00
2019-03-28T05:05:38.055Z,40.00
2019-03-28T05:07:30.959Z,52.00
2019-03-28T05:08:30.972Z,56.00
2019-03-28T05:10:23.877Z,76.00
2019-03-28T05:11:23.881Z,88.00
2019-03-28T05:13:16.785Z,112.00
2019-03-28T05:14:16.795Z,120.00
2019-03-28T05:16:09.701Z,140.00
2019-03-28T05:17:09.706Z,156.00
2019-03-28T05:19:02.607Z,180.00
2019-03-28T05:20:02.624Z,192.00
2019-03-28T05:21:56.388Z,224.00
2019-03-28T05:22:55.536Z,240.00
2019-03-28T05:24:48.443Z,272.00
2019-03-28T05:25:48.446Z,284.00
2019-03-28T05:27:41.356Z,312.00
2019-03-28T05:28:41.360Z,328.00
2019-03-28T05:30:34.268Z,368.00
2019-03-28T05:31:34.421Z,404.00
2019-03-28T05:33:27.173Z,476.00
2019-03-28T05:34:27.184Z,512.00
2019-03-28T05:36:20.092Z,584.00
2019-03-28T05:37:20.097Z,624.00
2019-03-28T05:39:13.071Z,680.00
2019-03-28T05:40:13.050Z,716.00
2019-03-28T05:42:05.985Z,780.00
2019-03-28T05:43:05.962Z,796.00
2019-03-28T05:44:58.871Z,856.00
2019-03-28T05:45:58.944Z,908.00
2019-03-28T05:47:52.269Z,1020.00
2019-03-28T05:48:52.292Z,1076.00
2019-03-28T05:50:45.682Z,1172.00
2019-03-28T05:51:45.687Z,1204.00
2019-03-28T05:53:38.619Z,1244.00
2019-03-28T05:54:38.601Z,1268.00
2019-03-28T05:56:31.510Z,1308.00
2019-03-28T05:57:31.515Z,1344.00
2019-03-28T05:59:24.419Z,1440.00
2019-03-28T06:00:24.430Z,1508.00
2019-03-28T06:02:17.336Z,1684.00
2019-03-28T06:03:17.343Z,1808.00
2019-03-28T06:05:10.746Z,2056.00
2019-03-28T06:06:10.752Z,2180.00
2019-03-28T06:08:03.651Z,2380.00
2019-03-28T06:09:03.662Z,2516.00
2019-03-28T06:10:56.570Z,2800.00
2019-03-28T06:11:56.577Z,2944.00
2019-03-28T06:13:49.482Z,3312.00
2019-03-28T06:14:49.492Z,3548.00
2019-03-28T06:16:42.400Z,3928.00
2019-03-28T06:17:42.406Z,4088.00
2019-03-28T06:19:35.310Z,4428.00
2019-03-28T06:20:35.324Z,4572.00
2019-03-28T06:22:28.271Z,4752.00
2019-03-28T06:23:28.242Z,4860.00
2019-03-28T06:25:21.154Z,5028.00
2019-03-28T06:26:21.157Z,5056.00
2019-03-28T06:28:14.066Z,5068.00
2019-03-28T06:29:23.843Z,5116.00
2019-03-28T06:31:06.996Z,5224.00
2019-03-28T06:32:06.995Z,5212.00
2019-03-28T06:34:00.478Z,4940.00
2019-03-28T06:34:59.912Z,4800.00
2019-03-28T06:36:52.824Z,4536.00
2019-03-28T06:37:52.829Z,4392.00
2019-03-28T06:39:46.238Z,4096.00
2019-03-28T06:40:46.241Z,3940.00
2019-03-28T06:42:39.152Z,3580.00
2019-03-28T06:43:41.973Z,3480.00
2019-03-28T06:45:32.086Z,3444.00
2019-03-28T06:46:32.077Z,3428.00
2019-03-28T06:48:24.980Z,3212.00
2019-03-28T06:49:24.995Z,3072.00
2019-03-28T06:51:17.906Z,2868.00
2019-03-28T06:52:17.913Z,2852.00
2019-03-28T06:54:10.821Z,2772.00
2019-03-28T06:55:10.828Z,2720.00
2019-03-28T06:57:03.741Z,2440.00
2019-03-28T06:58:03.747Z,2436.00
2019-03-28T06:59:56.659Z,2764.00
2019-03-28T07:00:56.664Z,2996.00
2019-03-28T07:02:49.571Z,3556.00
2019-03-28T07:03:49.581Z,3732.00
2019-03-28T07:05:42.495Z,3740.00
2019-03-28T07:06:42.500Z,3736.00
2019-03-28T07:08:35.400Z,3592.00
2019-03-28T07:09:35.415Z,3508.00
2019-03-28T07:11:28.510Z,3308.00
2019-03-28T07:12:28.326Z,3308.00
2019-03-28T07:14:21.685Z,3996.00
2019-03-28T07:15:21.246Z,4308.00
2019-03-28T07:17:14.159Z,4552.00
2019-03-28T07:18:14.160Z,4596.00
2019-03-28T07:20:08.949Z,4464.00
2019-03-28T07:21:07.083Z,4344.00
2019-03-28T07:22:59.987Z,4244.00
2019-03-28T07:24:00.002Z,4204.00
2019-03-28T07:25:52.914Z,4180.00
2019-03-28T07:26:52.918Z,4180.00
2019-03-28T07:28:45.821Z,4260.00
2019-03-28T07:29:51.077Z,4356.00
2019-03-28T07:31:38.747Z,4520.00
2019-03-28T07:32:38.753Z,4604.00
2019-03-28T07:34:31.660Z,5408.00
2019-03-28T07:35:31.671Z,6132.00
2019-03-28T07:37:27.737Z,7072.00
2019-03-28T07:38:24.589Z,6952.00
2019-03-28T07:40:17.556Z,6272.00
2019-03-28T07:41:17.504Z,7808.00
2019-03-28T07:43:10.412Z,8804.00
2019-03-28T07:44:10.425Z,9104.00
2019-03-28T07:46:03.335Z,8788.00
2019-03-28T07:47:03.357Z,8392.00
2019-03-28T07:48:56.260Z,7740.00
2019-03-28T07:49:56.262Z,8064.00
2019-03-28T07:51:49.171Z,8748.00
2019-03-28T07:52:49.177Z,9600.00
2019-03-28T07:54:42.142Z,9232.00
2019-03-28T07:55:42.152Z,8948.00
2019-03-28T07:57:35.067Z,8996.00
2019-03-28T07:58:35.405Z,9272.00
2019-03-28T08:00:27.985Z,9548.00
2019-03-28T08:01:27.989Z,9576.00
2019-03-28T08:03:20.895Z,9484.00
2019-03-28T08:04:20.910Z,9488.00
2019-03-28T08:06:13.818Z,9428.00
2019-03-28T08:07:13.827Z,9396.00
2019-03-28T08:09:06.734Z,9380.00
2019-03-28T08:10:06.756Z,9396.00
2019-03-28T08:11:59.663Z,9556.00
2019-03-28T08:12:59.670Z,9668.00
2019-03-28T08:14:52.592Z,9944.00
2019-03-28T08:15:52.592Z,9976.00
2019-03-28T08:17:46.001Z,9672.00
2019-03-28T08:18:46.011Z,9520.00
2019-03-28T08:20:38.928Z,9468.00
2019-03-28T08:21:38.934Z,9520.00
2019-03-28T08:23:35.186Z,9716.00
2019-03-28T08:24:31.856Z,9736.00
2019-03-28T08:26:25.266Z,9768.00
2019-03-28T08:27:25.274Z,9848.00
2019-03-28T08:29:18.182Z,10136.00
2019-03-28T08:30:19.477Z,10268.00
2019-03-28T08:32:13.571Z,10288.00
2019-03-28T08:33:11.118Z,10248.00
2019-03-28T08:35:04.157Z,10176.00
2019-03-28T08:36:04.041Z,10312.00
2019-03-28T08:37:57.022Z,10768.00
2019-03-28T08:38:56.964Z,10956.00
2019-03-28T08:40:49.917Z,11160.00
2019-03-28T08:41:50.692Z,11256.00
2019-03-28T08:43:42.948Z,11188.00
2019-03-28T08:44:42.814Z,11156.00
2019-03-28T08:46:35.732Z,11264.00
2019-03-28T08:47:35.742Z,11268.00
2019-03-28T08:49:28.655Z,11172.00
2019-03-28T08:50:28.665Z,11116.00
2019-03-28T08:52:21.581Z,10520.00
2019-03-28T08:53:21.593Z,9920.00
2019-03-28T08:55:15.086Z,8940.00
2019-03-28T08:56:15.013Z,8880.00
2019-03-28T08:58:07.922Z,9364.00
2019-03-28T08:59:07.937Z,9492.00
2019-03-28T09:01:00.856Z,9216.00
2019-03-28T09:02:00.866Z,9028.00
2019-03-28T09:03:53.779Z,8828.00
2019-03-28T09:04:53.794Z,8728.00
2019-03-28T09:06:46.733Z,8428.00
2019-03-28T09:07:46.722Z,8392.00
2019-03-28T09:09:39.629Z,9080.00
2019-03-28T09:10:39.644Z,9660.00
2019-03-28T09:12:35.170Z,10176.00
2019-03-28T09:13:32.572Z,10152.00
2019-03-28T09:15:25.493Z,9792.00
2019-03-28T09:16:25.500Z,9556.00
2019-03-28T09:18:18.904Z,9144.00
2019-03-28T09:19:18.929Z,8904.00
2019-03-28T09:21:11.842Z,8592.00
2019-03-28T09:22:11.849Z,8616.00
2019-03-28T09:24:04.762Z,8976.00
2019-03-28T09:25:04.783Z,9260.00
2019-03-28T09:26:57.733Z,9896.00
2019-03-28T09:27:57.704Z,10048.00
2019-03-28T09:29:50.614Z,9608.00
2019-03-28T09:30:50.634Z,9272.00
2019-03-28T09:32:43.548Z,9120.00
2019-03-28T09:33:43.562Z,9336.00
2019-03-28T09:35:36.493Z,10172.00
2019-03-28T09:36:36.487Z,10580.00
2019-03-28T09:38:29.395Z,10712.00
2019-03-28T09:39:29.412Z,10364.00
2019-03-28T09:41:22.333Z,9612.00
2019-03-28T09:42:22.342Z,9588.00
2019-03-28T09:44:15.251Z,10348.00
2019-03-28T09:45:15.272Z,10348.00
2019-03-28T09:47:08.190Z,9612.00
2019-03-28T09:48:11.428Z,9260.00
2019-03-28T09:50:01.198Z,9732.00
2019-03-28T09:51:01.127Z,10384.00
2019-03-28T09:52:54.096Z,10708.00
2019-03-28T09:53:54.055Z,10408.00
2019-03-28T09:55:46.976Z,9456.00
2019-03-28T09:56:46.987Z,9080.00
2019-03-28T09:58:39.896Z,8700.00
2019-03-28T09:59:39.912Z,8604.00
2019-03-28T10:01:32.853Z,8848.00
2019-03-28T10:02:32.842Z,9292.00
2019-03-28T10:04:25.751Z,10152.00
2019-03-28T10:05:25.768Z,10264.00
2019-03-28T10:07:19.177Z,9640.00
2019-03-28T10:08:19.189Z,9128.00
2019-03-28T10:10:12.100Z,8112.00
2019-03-28T10:11:12.115Z,7792.00
2019-03-28T10:13:05.032Z,7932.00
2019-03-28T10:14:05.039Z,8308.00
2019-03-28T10:15:57.956Z,9036.00
2019-03-28T10:16:57.970Z,9352.00
2019-03-28T10:18:50.882Z,10072.00
2019-03-28T10:19:50.893Z,10504.00
2019-03-28T10:21:43.803Z,10964.00
2019-03-28T10:22:43.821Z,10932.00
2019-03-28T10:24:36.729Z,10632.00
2019-03-28T10:25:36.746Z,10472.00
2019-03-28T10:27:29.689Z,10060.00
2019-03-28T10:28:29.671Z,9708.00
2019-03-28T10:30:22.586Z,9280.00
2019-03-28T10:31:22.598Z,9448.00
2019-03-28T10:33:15.514Z,10252.00
2019-03-28T10:34:15.524Z,10712.00
2019-03-28T10:36:08.442Z,11200.00
2019-03-28T10:37:08.454Z,11108.00
2019-03-28T10:39:01.395Z,10616.00
2019-03-28T10:40:01.379Z,10372.00
2019-03-28T10:41:54.881Z,10060.00
2019-03-28T10:42:54.309Z,9916.00
2019-03-28T10:44:47.235Z,10028.00
2019-03-28T10:45:47.236Z,10500.00
2019-03-28T10:47:40.153Z,11408.00
2019-03-28T10:48:40.166Z,11516.00
2019-03-28T10:50:40.890Z,11584.00
2019-03-28T10:51:33.091Z,11664.00
2019-03-28T10:53:26.004Z,10820.00
2019-03-28T10:54:26.019Z,9960.00
2019-03-28T10:56:23.404Z,9156.00
2019-03-28T10:57:29.420Z,9044.00
2019-03-28T10:59:22.644Z,9296.00
2019-03-28T11:00:23.421Z,9584.00
2019-03-28T11:02:04.798Z,10552.00
2019-03-28T11:03:05.031Z,11384.00
2019-03-28T11:04:57.771Z,11968.00
2019-03-28T11:05:57.739Z,11980.00
2019-03-28T11:07:50.685Z,11984.00
2019-03-28T11:08:50.671Z,12052.00
2019-03-28T11:10:43.604Z,11840.00
2019-03-28T11:11:43.598Z,11660.00
2019-03-28T11:13:36.510Z,11600.00
2019-03-28T11:14:36.528Z,11528.00
2019-03-28T11:16:29.574Z,11220.00
2019-03-28T11:17:29.455Z,11164.00
2019-03-28T11:19:22.372Z,11244.00
2019-03-28T11:20:22.385Z,11512.00
2019-03-28T11:22:15.301Z,11840.00
2019-03-28T11:23:15.313Z,11668.00
2019-03-28T11:25:08.233Z,11456.00
2019-03-28T11:26:08.255Z,11520.00
2019-03-28T11:28:01.167Z,11932.00
2019-03-28T11:29:01.257Z,12004.00
2019-03-28T11:30:54.094Z,11832.00
2019-03-28T11:31:54.104Z,11656.00
2019-03-28T11:33:47.567Z,11772.00
2019-03-28T11:34:47.035Z,11992.00
2019-03-28T11:36:39.971Z,12108.00
2019-03-28T11:37:39.966Z,12180.00
2019-03-28T11:39:32.884Z,12180.00
2019-03-28T11:40:32.898Z,12192.00
2019-03-28T11:42:25.833Z,12140.00
2019-03-28T11:43:25.831Z,12148.00
2019-03-28T11:45:18.746Z,11888.00
2019-03-28T11:46:18.764Z,11848.00
2019-03-28T11:48:11.751Z,12016.00
2019-03-28T11:49:11.696Z,12196.00
2019-03-28T11:51:04.618Z,12244.00
2019-03-28T11:52:04.627Z,12324.00
2019-03-28T11:53:57.538Z,12300.00
2019-03-28T11:54:57.559Z,12020.00
2019-03-28T11:56:51.034Z,11720.00
2019-03-28T11:57:50.983Z,11752.00
2019-03-28T11:59:43.895Z,11748.00
2019-03-28T12:00:43.918Z,11716.00
2019-03-28T12:02:36.838Z,11720.00
2019-03-28T12:03:36.844Z,11664.00
2019-03-28T12:05:29.764Z,11548.00
2019-03-28T12:06:29.780Z,11424.00
2019-03-28T12:08:22.743Z,11248.00
2019-03-28T12:09:22.714Z,11084.00
2019-03-28T12:11:15.706Z,10800.00
2019-03-28T12:12:15.648Z,10684.00
2019-03-28T12:14:08.561Z,10416.00
2019-03-28T12:15:08.579Z,10240.00
2019-03-28T12:17:01.501Z,10024.00
2019-03-28T12:18:01.510Z,9944.00
2019-03-28T12:19:54.428Z,9684.00
2019-03-28T12:20:54.445Z,9540.00
2019-03-28T12:22:47.361Z,9292.00
2019-03-28T12:23:47.732Z,9240.00
2019-03-28T12:25:40.354Z,8988.00
2019-03-28T12:26:40.306Z,8788.00
2019-03-28T12:28:33.223Z,8528.00
2019-03-28T12:29:35.781Z,8532.00
2019-03-28T12:31:26.152Z,8540.00
2019-03-28T12:32:26.165Z,8504.00
2019-03-28T12:34:19.082Z,8424.00
2019-03-28T12:35:19.095Z,8436.00
2019-03-28T12:37:12.016Z,8460.00
2019-03-28T12:38:12.029Z,8456.00
2019-03-28T12:40:05.082Z,8412.00
2019-03-28T12:41:05.101Z,8384.00
2019-03-28T12:42:58.024Z,8360.00
2019-03-28T12:43:58.028Z,8324.00
2019-03-28T12:45:50.950Z,8184.00
2019-03-28T12:46:50.964Z,8088.00
2019-03-28T12:48:43.879Z,7904.00
2019-03-28T12:49:43.889Z,7724.00
2019-03-28T12:51:36.834Z,7352.00
2019-03-28T12:52:36.825Z,7216.00
2019-03-28T12:54:29.779Z,7144.00
2019-03-28T12:55:29.752Z,7140.00
2019-03-28T12:57:22.671Z,7060.00
2019-03-28T12:58:22.682Z,6952.00
2019-03-28T13:00:15.591Z,6696.00
2019-03-28T13:01:15.608Z,6560.00
2019-03-28T13:03:08.529Z,6360.00
2019-03-28T13:04:08.541Z,6320.00
2019-03-28T13:06:01.494Z,6332.00
2019-03-28T13:07:01.468Z,6384.00
2019-03-28T13:08:54.386Z,6396.00
2019-03-28T13:09:54.396Z,6316.00
2019-03-28T13:11:47.393Z,6116.00
2019-03-28T13:12:47.323Z,6044.00
2019-03-28T13:14:40.235Z,5908.00
2019-03-28T13:15:40.264Z,5808.00
2019-03-28T13:17:33.174Z,5612.00
2019-03-28T13:18:35.888Z,5532.00
2019-03-28T13:20:26.094Z,5428.00
2019-03-28T13:21:26.111Z,5376.00
2019-03-28T13:23:19.030Z,5288.00
2019-03-28T13:24:19.043Z,5248.00
2019-03-28T13:26:11.966Z,5152.00
2019-03-28T13:27:11.968Z,5076.00
2019-03-28T13:29:04.954Z,4972.00
2019-03-28T13:30:04.899Z,4956.00
2019-03-28T13:31:58.310Z,4992.00
2019-03-28T13:32:58.317Z,5020.00
2019-03-28T13:34:51.232Z,5040.00
2019-03-28T13:35:51.251Z,5040.00
2019-03-28T13:37:44.166Z,5032.00
2019-03-28T13:38:44.174Z,5016.00
2019-03-28T13:40:37.084Z,4980.00
2019-03-28T13:41:37.101Z,4992.00
2019-03-28T13:43:30.619Z,5020.00
2019-03-28T13:44:30.410Z,5016.00
2019-03-28T13:46:22.949Z,4964.00
2019-03-28T13:47:22.955Z,4956.00
2019-03-28T13:49:15.869Z,5100.00
2019-03-28T13:50:15.882Z,5236.00
2019-03-28T13:52:08.833Z,5356.00
2019-03-28T13:53:08.811Z,5304.00
2019-03-28T13:55:01.723Z,5176.00
2019-03-28T13:56:01.738Z,5132.00
2019-03-28T13:57:54.664Z,5124.00
2019-03-28T13:58:54.667Z,5144.00
2019-03-28T14:00:47.583Z,5184.00
2019-03-28T14:01:47.595Z,5188.00
2019-03-28T14:03:40.516Z,5208.00
2019-03-28T14:04:40.526Z,5192.00
2019-03-28T14:06:33.484Z,5252.00
2019-03-28T14:07:33.453Z,5356.00
2019-03-28T14:09:26.367Z,5524.00
2019-03-28T14:10:26.379Z,5520.00
2019-03-28T14:12:19.297Z,5420.00
2019-03-28T14:13:19.308Z,5388.00
2019-03-28T14:15:12.246Z,5368.00
2019-03-28T14:16:12.234Z,5372.00
2019-03-28T14:18:05.155Z,5376.00
2019-03-28T14:19:05.163Z,5380.00
2019-03-28T14:20:58.142Z,5388.00
2019-03-28T14:21:58.091Z,5404.00
2019-03-28T14:23:51.007Z,5460.00
2019-03-28T14:24:51.026Z,5472.00
2019-03-28T14:26:43.937Z,5420.00
2019-03-28T14:27:43.942Z,5372.00
2019-03-28T14:29:36.852Z,5256.00
2019-03-28T14:30:39.399Z,5156.00
2019-03-28T14:32:32.896Z,5024.00
2019-03-28T14:33:29.797Z,5016.00
2019-03-28T14:35:22.717Z,5032.00
2019-03-28T14:36:25.202Z,5000.00
2019-03-28T14:38:15.650Z,4992.00
2019-03-28T14:39:15.657Z,5060.00
2019-03-28T14:41:08.571Z,5220.00
2019-03-28T14:42:08.603Z,5268.00
2019-03-28T14:44:02.458Z,5244.00
2019-03-28T14:45:01.512Z,5240.00
2019-03-28T14:46:54.433Z,5272.00
2019-03-28T14:47:54.472Z,5228.00
2019-03-28T14:49:47.404Z,5040.00
2019-03-28T14:50:47.547Z,4968.00
2019-03-28T14:52:40.290Z,5044.00
2019-03-28T14:53:40.299Z,5164.00
2019-03-28T14:55:33.260Z,5316.00
2019-03-28T14:56:33.268Z,5276.00
2019-03-28T14:58:26.147Z,4988.00
2019-03-28T14:59:32.398Z,4828.00
2019-03-28T15:01:19.113Z,4648.00
2019-03-28T15:02:19.081Z,4612.00
2019-03-28T15:04:12.027Z,4580.00
2019-03-28T15:05:12.010Z,4560.00
2019-03-28T15:07:07.334Z,4560.00
2019-03-28T15:08:04.938Z,4600.00
2019-03-28T15:09:57.845Z,4628.00
2019-03-28T15:10:57.861Z,4588.00
2019-03-28T15:12:50.932Z,4448.00
2019-03-28T15:13:50.928Z,4344.00
2019-03-28T15:15:43.833Z,4212.00
2019-03-28T15:16:43.846Z,4188.00
2019-03-28T15:18:36.771Z,4256.00
2019-03-28T15:19:36.773Z,4316.00
2019-03-28T15:21:29.775Z,4368.00
2019-03-28T15:22:29.842Z,4340.00
2019-03-28T15:24:22.748Z,4264.00
2019-03-28T15:25:22.705Z,4224.00
2019-03-28T15:27:15.622Z,4156.00
2019-03-28T15:28:15.634Z,4140.00
2019-03-28T15:30:08.547Z,4140.00
2019-03-28T15:31:08.558Z,4172.00
2019-03-28T15:33:01.489Z,4200.00
2019-03-28T15:34:01.487Z,4184.00
2019-03-28T15:35:54.397Z,4168.00
2019-03-28T15:36:54.414Z,4148.00
2019-03-28T15:38:47.328Z,4136.00
2019-03-28T15:39:47.336Z,4160.00
2019-03-28T15:41:40.243Z,4232.00
2019-03-28T15:42:40.258Z,4252.00
2019-03-28T15:44:33.172Z,4204.00
2019-03-28T15:45:33.681Z,4124.00
2019-03-28T15:47:26.105Z,4016.00
2019-03-28T15:48:26.115Z,3992.00
2019-03-28T15:50:19.782Z,3976.00
2019-03-28T15:51:19.538Z,4004.00
2019-03-28T15:53:12.457Z,4016.00
2019-03-28T15:54:12.467Z,3988.00
2019-03-28T15:56:05.377Z,3908.00
2019-03-28T15:57:05.384Z,3876.00
2019-03-28T15:58:58.823Z,3812.00
2019-03-28T15:59:58.821Z,3788.00
2019-03-28T16:01:51.742Z,3732.00
2019-03-28T16:02:51.750Z,3684.00
2019-03-28T16:04:44.680Z,3508.00
2019-03-28T16:05:57.597Z,3436.00
2019-03-28T16:07:37.636Z,3368.00
2019-03-28T16:08:37.611Z,3356.00
2019-03-28T16:10:30.565Z,3336.00
2019-03-28T16:11:30.536Z,3288.00
2019-03-28T16:13:23.456Z,3108.00
2019-03-28T16:14:23.464Z,3028.00
2019-03-28T16:16:16.374Z,2860.00
2019-03-28T16:17:16.388Z,2760.00
2019-03-28T16:19:09.305Z,2580.00
2019-03-28T16:20:09.313Z,2520.00
2019-03-28T16:22:04.151Z,2420.00
2019-03-28T16:23:02.240Z,2396.00
2019-03-28T16:24:55.155Z,2340.00
2019-03-28T16:25:55.166Z,2316.00
2019-03-28T16:27:48.345Z,2288.00
2019-03-28T16:28:48.094Z,2272.00
2019-03-28T16:30:41.016Z,2252.00
2019-03-28T16:31:41.019Z,2216.00
2019-03-28T16:33:34.089Z,2168.00
2019-03-28T16:34:34.098Z,2136.00
2019-03-28T16:36:27.008Z,2032.00
2019-03-28T16:37:27.711Z,1964.00
2019-03-28T16:39:19.949Z,1848.00
2019-03-28T16:40:19.951Z,1780.00
2019-03-28T16:42:12.863Z,1696.00
2019-03-28T16:43:12.874Z,1656.00
2019-03-28T16:45:05.795Z,1600.00
2019-03-28T16:46:07.726Z,1560.00
2019-03-28T16:47:58.715Z,1448.00
2019-03-28T16:48:58.725Z,1392.00
2019-03-28T16:50:51.634Z,1300.00
2019-03-28T16:51:51.808Z,1268.00
2019-03-28T16:53:44.570Z,1204.00
2019-03-28T16:54:44.577Z,1168.00
2019-03-28T16:56:37.487Z,1096.00
2019-03-28T16:57:37.502Z,1052.00
2019-03-28T16:59:30.419Z,984.00
2019-03-28T17:00:30.426Z,944.00
2019-03-28T17:02:23.367Z,880.00
2019-03-28T17:03:23.351Z,856.00
2019-03-28T17:05:16.271Z,824.00
2019-03-28T17:06:16.276Z,804.00
2019-03-28T17:08:09.191Z,764.00
2019-03-28T17:09:09.699Z,732.00
2019-03-28T17:11:02.107Z,672.00
2019-03-28T17:12:02.121Z,644.00
2019-03-28T17:13:55.037Z,596.00
2019-03-28T17:14:55.053Z,580.00
2019-03-28T17:16:48.089Z,552.00
2019-03-28T17:17:48.168Z,540.00
2019-03-28T17:19:42.811Z,520.00
2019-03-28T17:20:41.025Z,508.00
2019-03-28T17:22:33.940Z,484.00
2019-03-28T17:23:33.949Z,468.00
2019-03-28T17:25:26.862Z,448.00
2019-03-28T17:26:26.869Z,432.00
2019-03-28T17:28:19.786Z,400.00
2019-03-28T17:29:19.794Z,384.00
2019-03-28T17:31:12.700Z,352.00
2019-03-28T17:32:12.718Z,336.00
2019-03-28T17:34:05.628Z,304.00
2019-03-28T17:35:05.644Z,292.00
2019-03-28T17:36:58.542Z,264.00
2019-03-28T17:37:58.558Z,252.00
2019-03-28T17:39:51.477Z,224.00
2019-03-28T17:40:51.481Z,212.00
2019-03-28T17:42:47.631Z,196.00
2019-03-28T17:43:44.399Z,180.00
2019-03-28T17:45:37.345Z,160.00
2019-03-28T17:46:37.343Z,152.00
2019-03-28T17:48:30.962Z,136.00
2019-03-28T17:49:30.259Z,128.00
2019-03-28T17:51:23.165Z,112.00